Omaha, NE (68154)

7:18 AM CDT on March 29, 2017 (GMT -0500)
Ridgefield | | Change Station

Elev 1171 ft 41.27 °N, 96.12 °W | Updated 16 seconds ago

Rain
Rain
45.0 °F
Feels Like 43 °F
N
4.0
Wind Variable Wind from NW

Today
High -- | Low -- °F
--% Chance of Precip.
Yesterday
High -- | Low -- °F
Precip. -- in
Pressure 30.01 in
Visibility 7.0 miles
Clouds Overcast 900 ft
Windchill 43 °F
Dew Point 43 °F
Humidity 95%
Rainfall 0.35 in
Snow Depth Not available.
7:12 AM 7:46 PM
Waxing Crescent, 3% visible
METAR KMLE 291155Z AUTO 06006KT 7SM -RA OVC009 09/08 A3001 RMK AO2 P0011 60040 70040 T00900076 10105 20090
Pressure 30.01 in
Visibility 7.0 miles
Clouds Overcast 900 ft
Windchill 43 °F
Dew Point 43 °F
Humidity 95%
Rainfall 0.35 in
Snow Depth Not available.
7:12 AM 7:46 PM
Waxing Crescent, 3% visible
METAR KMLE 291155Z AUTO 06006KT 7SM -RA OVC009 09/08 A3001 RMK AO2 P0011 60040 70040 T00900076 10105 20090

Get Severe Weather Alerts

Thanks for signing up!

Be on the lookout for a verification email in your inbox.

You'll start receiving the daily forecast at 8 AM.

×

10-Day Weather Forecast

Almanac

Astronomy

Mar. 29, 2017 Rise Set
Actual Time
Civil Twilight
Nautical Twilight
Astronomical Twilight
Moon
Length of Visible Light
Length of Day
Tomorrow will be .
, % of the Moon is Illuminated

Today's Extremes

State Highs State Lows

Community

WunderPhotos

Upload Photos

1,962,540 photos uploaded!

WunderBlog® & News

Nearby

Air Quality

  Air Quality AQ Index Pollutant
Not available.

Snow Depth

Station Depth Elevation

Earthquake Activity

City Distance Mag. Time & Date
Minimum magnitude displayed is 2.5.

Earthquake Activity

City Distance Mag. Time & Date
Minimum magnitude displayed is 2.5.

Coastal Water Temperatures

Place Temperature

Stations

Nearby Weather Stations

Station Location Temp. Windchill Dew Point Humidity Wind Precip. Elev Updated Type
                   

Watches & Warnings

There are currently no watches in effect.